createdAt,value
2019-02-27T00:02:11.932Z,101933.12
2019-02-27T00:04:39.329Z,101936.50
2019-02-27T00:07:06.680Z,101936.16
2019-02-27T00:09:34.095Z,101937.56
2019-02-27T00:12:02.351Z,101933.37
2019-02-27T00:17:57.957Z,101937.00
2019-02-27T00:20:25.528Z,101928.33
2019-02-27T00:22:53.009Z,101925.51
2019-02-27T00:25:20.529Z,101923.20
2019-02-27T00:27:49.167Z,101924.87
2019-02-27T00:30:17.449Z,101924.51
2019-02-27T00:32:44.972Z,101916.08
2019-02-27T00:35:12.489Z,101921.22
2019-02-27T00:37:39.969Z,101913.26
2019-02-27T00:40:07.569Z,101917.45
2019-02-27T00:42:34.890Z,101920.68
2019-02-27T00:51:11.972Z,101912.86
2019-02-27T00:58:03.494Z,101913.11
2019-02-27T01:00:30.835Z,101910.08
2019-02-27T01:19:09.126Z,101879.34
2019-02-27T01:22:25.428Z,101874.63
2019-02-27T01:37:03.267Z,101862.53
2019-02-27T01:47:24.989Z,101851.71
2019-02-27T01:56:59.894Z,101835.71
2019-02-27T02:03:30.239Z,101828.84
2019-02-27T02:06:34.314Z,101816.44
2019-02-27T02:10:02.749Z,101819.98
2019-02-27T02:13:38.574Z,101818.48
2019-02-27T02:20:16.083Z,101805.86
2019-02-27T02:22:58.199Z,101791.94
2019-02-27T02:26:10.477Z,101789.41
2019-02-27T02:29:10.559Z,101789.92
2019-02-27T02:31:49.159Z,101787.53
2019-02-27T02:35:14.832Z,101769.80
2019-02-27T02:38:24.521Z,101771.11
2019-02-27T02:41:19.014Z,101766.30
2019-02-27T02:44:23.480Z,101756.61
2019-02-27T02:47:44.710Z,101763.42
2019-02-27T02:51:04.189Z,101757.78
2019-02-27T02:54:24.637Z,101749.14
2019-02-27T02:57:35.891Z,101743.09
2019-02-27T03:00:21.457Z,101744.75
2019-02-27T03:03:22.659Z,101744.30
2019-02-27T03:06:17.590Z,101741.33
2019-02-27T03:09:10.916Z,101731.42
2019-02-27T03:12:10.746Z,101732.80
2019-02-27T03:15:07.774Z,101729.66
2019-02-27T03:18:01.049Z,101725.00
2019-02-27T03:21:02.724Z,101723.12
2019-02-27T03:24:11.126Z,101719.19
2019-02-27T03:27:09.666Z,101707.83
2019-02-27T03:30:05.331Z,101703.68
2019-02-27T03:33:06.457Z,101707.95
2019-02-27T03:36:03.448Z,101712.34
2019-02-27T03:39:06.071Z,101718.03
2019-02-27T03:41:58.413Z,101720.48
2019-02-27T03:44:56.202Z,101717.75
2019-02-27T03:47:56.944Z,101726.08
2019-02-27T03:51:03.123Z,101719.91
2019-02-27T03:54:03.505Z,101716.02
2019-02-27T03:57:18.936Z,101711.59
2019-02-27T04:00:04.882Z,101715.63
2019-02-27T04:03:25.882Z,101707.42
2019-02-27T04:06:20.159Z,101709.10
2019-02-27T04:09:00.055Z,101694.98
2019-02-27T04:11:27.962Z,101693.43
2019-02-27T04:14:03.346Z,101689.33
2019-02-27T04:16:29.410Z,101687.23
2019-02-27T04:18:56.146Z,101685.89
2019-02-27T04:21:26.102Z,101688.71
2019-02-27T04:23:53.875Z,101678.38
2019-02-27T04:26:21.235Z,101677.91
2019-02-27T04:28:48.599Z,101679.15
2019-02-27T04:31:15.954Z,101674.81
2019-02-27T04:33:43.340Z,101678.86
2019-02-27T04:36:12.826Z,101673.87
2019-02-27T04:38:39.978Z,101672.53
2019-02-27T04:41:07.309Z,101671.11
2019-02-27T04:43:34.664Z,101671.96
2019-02-27T04:46:01.985Z,101667.52
2019-02-27T04:48:29.904Z,101673.03
2019-02-27T04:50:57.987Z,101670.78
2019-02-27T04:53:25.344Z,101666.73
2019-02-27T04:55:52.668Z,101667.30
2019-02-27T04:58:19.978Z,101654.36
2019-02-27T05:00:47.354Z,101645.65
2019-02-27T05:03:14.737Z,101648.80
2019-02-27T05:05:42.124Z,101651.84
2019-02-27T05:08:09.407Z,101647.52
2019-02-27T05:10:38.214Z,101650.47
2019-02-27T05:13:06.023Z,101649.14
2019-02-27T05:15:33.399Z,101646.28
2019-02-27T05:18:00.738Z,101641.55
2019-02-27T05:20:28.103Z,101643.75
2019-02-27T05:23:00.171Z,101644.54
2019-02-27T05:25:24.979Z,101650.32
2019-02-27T05:27:52.284Z,101652.42
2019-02-27T05:30:19.679Z,101654.09
2019-02-27T05:32:47.029Z,101650.34
2019-02-27T05:35:14.466Z,101655.66
2019-02-27T05:37:41.819Z,101654.33
2019-02-27T05:40:09.771Z,101655.22
2019-02-27T05:42:39.103Z,101656.90
2019-02-27T05:45:09.895Z,101660.68
2019-02-27T05:47:37.216Z,101656.80
2019-02-27T05:50:05.755Z,101655.51
2019-02-27T05:52:33.209Z,101651.56
2019-02-27T05:55:00.586Z,101651.11
2019-02-27T05:57:27.921Z,101646.39
2019-02-27T05:59:55.364Z,101641.17
2019-02-27T06:02:22.699Z,101635.33
2019-02-27T06:04:50.060Z,101638.82
2019-02-27T06:07:19.037Z,101639.16
2019-02-27T06:09:48.932Z,101638.75
2019-02-27T06:12:15.934Z,101646.52
2019-02-27T06:14:43.294Z,101643.08
2019-02-27T06:17:12.861Z,101649.03
2019-02-27T06:19:40.291Z,101647.73
2019-02-27T06:22:07.630Z,101652.45
2019-02-27T06:24:34.999Z,101650.09
2019-02-27T06:27:06.060Z,101645.64
2019-02-27T06:29:31.624Z,101648.69
2019-02-27T06:31:59.414Z,101652.12
2019-02-27T06:34:26.767Z,101646.19
2019-02-27T06:36:54.138Z,101644.91
2019-02-27T06:39:21.484Z,101639.53
2019-02-27T06:41:49.786Z,101635.64
2019-02-27T06:44:19.119Z,101621.75
2019-02-27T06:46:46.634Z,101619.52
2019-02-27T06:49:17.260Z,101617.00
2019-02-27T06:51:43.225Z,101607.35
2019-02-27T06:54:10.580Z,101596.47
2019-02-27T06:56:40.769Z,101584.20
2019-02-27T06:59:08.082Z,101587.97
2019-02-27T07:01:35.468Z,101579.94
2019-02-27T07:04:04.819Z,101587.36
2019-02-27T07:06:32.060Z,101572.33
2019-02-27T07:08:59.865Z,101575.22
2019-02-27T07:11:27.234Z,101584.09
2019-02-27T07:13:54.586Z,101581.66
2019-02-27T07:16:22.911Z,101575.67
2019-02-27T07:18:51.059Z,101564.77
2019-02-27T07:21:18.504Z,101543.47
2019-02-27T07:23:47.903Z,101536.75
2019-02-27T07:26:15.845Z,101527.06
2019-02-27T07:28:44.100Z,101518.45
2019-02-27T07:31:12.481Z,101523.20
2019-02-27T07:33:40.661Z,101537.27
2019-02-27T07:36:08.689Z,101536.76
2019-02-27T07:38:36.038Z,101532.86
2019-02-27T07:41:03.394Z,101517.69
2019-02-27T07:43:30.729Z,101533.53
2019-02-27T07:45:58.079Z,101530.25
2019-02-27T07:48:25.414Z,101527.20
2019-02-27T07:50:52.944Z,101513.77
2019-02-27T07:53:20.284Z,101518.02
2019-02-27T07:55:48.421Z,101519.30
2019-02-27T07:58:15.834Z,101527.18
2019-02-27T08:00:43.146Z,101533.75
2019-02-27T08:03:12.986Z,101521.69
2019-02-27T08:05:39.878Z,101520.02
2019-02-27T08:08:07.299Z,101505.02
2019-02-27T08:10:36.982Z,101513.72
2019-02-27T08:13:04.348Z,101512.62
2019-02-27T08:15:31.728Z,101519.23
2019-02-27T08:17:59.223Z,101525.36
2019-02-27T08:20:26.720Z,101515.43
2019-02-27T08:22:54.244Z,101522.95
2019-02-27T08:25:21.889Z,101512.05
2019-02-27T08:27:49.375Z,101508.28
2019-02-27T08:30:18.426Z,101510.94
2019-02-27T08:32:46.110Z,101499.89
2019-02-27T08:35:16.762Z,101504.78
2019-02-27T08:37:44.313Z,101506.51
2019-02-27T08:40:11.875Z,101509.87
2019-02-27T08:42:40.699Z,101508.75
2019-02-27T08:45:08.973Z,101507.83
2019-02-27T08:47:36.499Z,101514.73
2019-02-27T08:50:05.984Z,101522.72
2019-02-27T08:52:34.160Z,101517.38
2019-02-27T08:55:05.419Z,101515.37
2019-02-27T08:57:30.854Z,101514.34
2019-02-27T08:59:58.553Z,101509.79
2019-02-27T09:02:29.207Z,101504.02
2019-02-27T09:04:55.497Z,101490.70
2019-02-27T09:10:44.980Z,101492.22
2019-02-27T09:16:09.616Z,101483.00
2019-02-27T09:18:37.162Z,101472.02
2019-02-27T09:21:04.734Z,101470.80
2019-02-27T09:23:32.399Z,101465.50
2019-02-27T09:26:02.698Z,101471.52
2019-02-27T09:28:29.998Z,101464.27
2019-02-27T09:31:03.326Z,101462.27
2019-02-27T09:33:29.461Z,101460.47
2019-02-27T09:35:57.372Z,101455.47
2019-02-27T09:38:25.032Z,101446.72
2019-02-27T09:40:52.611Z,101443.41
2019-02-27T09:43:20.131Z,101446.05
2019-02-27T09:45:47.751Z,101439.84
2019-02-27T09:48:15.371Z,101452.90
2019-02-27T09:50:47.649Z,101439.03
2019-02-27T09:53:14.059Z,101435.17
2019-02-27T09:55:41.660Z,101437.88
2019-02-27T09:58:11.291Z,101440.06
2019-02-27T10:00:44.613Z,101441.69
2019-02-27T10:03:12.273Z,101440.72
2019-02-27T10:05:40.843Z,101445.12
2019-02-27T10:08:08.971Z,101435.44
2019-02-27T10:10:36.562Z,101438.59
2019-02-27T10:13:04.212Z,101439.20
2019-02-27T10:15:31.833Z,101442.91
2019-02-27T10:17:59.410Z,101452.73
2019-02-27T10:20:26.991Z,101459.45
2019-02-27T10:22:54.631Z,101449.97
2019-02-27T10:25:22.331Z,101452.47
2019-02-27T10:27:50.031Z,101445.87
2019-02-27T10:30:17.850Z,101437.56
2019-02-27T10:32:45.471Z,101434.47
2019-02-27T10:35:14.011Z,101428.63
2019-02-27T10:37:41.623Z,101424.63
2019-02-27T10:40:11.468Z,101426.30
2019-02-27T10:42:40.710Z,101429.92
2019-02-27T10:45:10.216Z,101427.27
2019-02-27T10:47:39.925Z,101418.49
2019-02-27T10:50:07.991Z,101414.17
2019-02-27T10:52:35.551Z,101414.65
2019-02-27T10:55:03.355Z,101401.97
2019-02-27T10:57:32.230Z,101386.16
2019-02-27T11:00:03.539Z,101379.02
2019-02-27T11:02:31.231Z,101384.53
2019-02-27T11:04:58.771Z,101380.31
2019-02-27T11:07:26.332Z,101382.73
2019-02-27T11:09:53.919Z,101378.42
2019-02-27T11:12:21.586Z,101372.30
2019-02-27T11:14:49.243Z,101366.98
2019-02-27T11:17:16.954Z,101364.91
2019-02-27T11:19:44.812Z,101362.05
2019-02-27T11:23:06.732Z,101355.92
2019-02-27T11:25:56.518Z,101348.66
2019-02-27T11:28:31.124Z,101334.08
2019-02-27T11:31:38.751Z,101319.39
2019-02-27T11:34:13.231Z,101315.51
2019-02-27T11:36:40.840Z,101294.86
2019-02-27T11:39:08.872Z,101278.83
2019-02-27T11:41:36.351Z,101262.84
2019-02-27T11:44:05.072Z,101267.11
2019-02-27T11:46:35.154Z,101262.35
2019-02-27T11:49:03.166Z,101260.73
2019-02-27T11:51:31.174Z,101242.48
2019-02-27T11:53:59.171Z,101232.98
2019-02-27T11:56:26.691Z,101228.27
2019-02-27T11:58:57.789Z,101219.21
2019-02-27T12:01:25.531Z,101219.08
2019-02-27T12:03:53.051Z,101218.66
2019-02-27T12:06:20.651Z,101220.33
2019-02-27T12:08:48.734Z,101218.11
2019-02-27T12:11:16.231Z,101215.86
2019-02-27T12:13:43.695Z,101216.17
2019-02-27T12:16:11.471Z,101206.74
2019-02-27T12:19:08.651Z,101204.06
2019-02-27T12:21:34.851Z,101194.33
2019-02-27T12:35:56.870Z,101177.34
2019-02-27T12:38:56.042Z,101176.98
2019-02-27T12:43:14.373Z,101172.16
2019-02-27T12:55:01.773Z,101154.26
2019-02-27T13:02:46.228Z,101144.55
2019-02-27T13:12:42.029Z,101123.45
2019-02-27T13:15:12.277Z,101114.44
2019-02-27T13:18:43.962Z,101112.04
2019-02-27T13:21:37.532Z,101115.19
2019-02-27T13:24:22.252Z,101102.13
2019-02-27T13:30:41.370Z,101097.27
2019-02-27T13:36:51.577Z,101087.89
2019-02-27T13:43:05.603Z,101065.16
2019-02-27T14:14:53.338Z,101037.62
2019-02-27T14:18:21.950Z,101029.64
2019-02-27T14:21:56.129Z,101027.25
2019-02-27T14:32:38.252Z,101017.29
2019-02-27T14:36:01.703Z,101011.34
2019-02-27T14:39:07.837Z,101004.36
2019-02-27T15:02:33.798Z,100974.12
2019-02-27T15:05:06.213Z,100970.11
2019-02-27T15:07:30.505Z,100969.30
2019-02-27T15:09:57.938Z,100964.98
2019-02-27T15:12:25.325Z,100963.16
2019-02-27T15:14:52.764Z,100960.86
2019-02-27T15:17:20.450Z,100957.41
2019-02-27T15:19:48.744Z,100955.33
2019-02-27T15:22:20.227Z,100956.16
2019-02-27T15:24:45.483Z,100952.90
2019-02-27T15:27:12.866Z,100947.86
2019-02-27T15:29:40.350Z,100951.15
2019-02-27T15:32:07.808Z,100943.75
2019-02-27T15:34:35.238Z,100940.20
2019-02-27T15:37:04.131Z,100937.02
2019-02-27T15:39:31.983Z,100937.59
2019-02-27T15:41:59.374Z,100935.95
2019-02-27T15:44:26.823Z,100928.58
2019-02-27T15:46:56.600Z,100928.91
2019-02-27T15:49:23.553Z,100930.93
2019-02-27T15:51:51.029Z,100923.75
2019-02-27T15:54:23.981Z,100921.28
2019-02-27T15:56:47.773Z,100913.66
2019-02-27T15:59:15.713Z,100917.64
2019-02-27T16:01:43.118Z,100907.46
2019-02-27T16:04:10.610Z,100918.47
2019-02-27T16:06:39.821Z,100910.14
2019-02-27T16:09:08.883Z,100907.16
2019-02-27T16:11:36.298Z,100907.98
2019-02-27T16:14:09.259Z,100901.72
2019-02-27T16:16:33.283Z,100903.12
2019-02-27T16:19:00.855Z,100902.66
2019-02-27T16:21:28.375Z,100905.61
2019-02-27T16:23:56.232Z,100901.64
2019-02-27T16:26:27.011Z,100902.09
2019-02-27T16:28:53.634Z,100896.62
2019-02-27T16:31:21.178Z,100897.76
2019-02-27T16:33:48.913Z,100892.13
2019-02-27T16:36:16.544Z,100889.30
2019-02-27T16:38:44.059Z,100884.37
2019-02-27T16:41:11.933Z,100879.23
2019-02-27T16:43:39.499Z,100875.80
2019-02-27T16:46:08.529Z,100873.30
2019-02-27T16:48:36.529Z,100875.13
2019-02-27T16:51:04.332Z,100877.24
2019-02-27T16:53:31.923Z,100868.51
2019-02-27T16:55:59.768Z,100880.10
2019-02-27T16:58:32.515Z,100871.30
2019-02-27T17:00:57.104Z,100865.51
2019-02-27T17:03:24.738Z,100866.88
2019-02-27T17:05:52.438Z,100869.81
2019-02-27T17:08:20.203Z,100870.02
2019-02-27T17:10:51.666Z,100865.09
2019-02-27T17:13:17.710Z,100864.94
2019-02-27T17:15:45.435Z,100861.66
2019-02-27T17:18:13.275Z,100865.95
2019-02-27T17:20:45.878Z,100855.47
2019-02-27T17:23:11.078Z,100861.79
2019-02-27T17:25:38.784Z,100854.02
2019-02-27T17:28:06.335Z,100854.09
2019-02-27T17:30:37.765Z,100854.20
2019-02-27T17:33:04.098Z,100852.75
2019-02-27T17:35:32.979Z,100847.13
2019-02-27T17:38:00.580Z,100847.01
2019-02-27T17:40:29.209Z,100841.50
2019-02-27T17:42:57.418Z,100836.69
2019-02-27T17:45:28.269Z,100839.98
2019-02-27T17:47:56.091Z,100836.73
2019-02-27T17:50:31.694Z,100834.25
2019-02-27T17:52:58.600Z,100836.16
2019-02-27T17:55:26.569Z,100829.64
2019-02-27T17:57:58.026Z,100823.92
2019-02-27T18:00:34.479Z,100818.05
2019-02-27T18:03:05.024Z,100811.22
2019-02-27T18:05:35.169Z,100817.08
2019-02-27T18:08:04.158Z,100809.11
2019-02-27T18:10:37.076Z,100800.88
2019-02-27T18:13:02.119Z,100792.24
2019-02-27T18:15:30.139Z,100790.58
2019-02-27T18:17:58.169Z,100777.73
2019-02-27T18:20:26.029Z,100775.69
2019-02-27T18:22:54.001Z,100766.20
2019-02-27T18:25:21.996Z,100763.77
2019-02-27T18:27:49.846Z,100759.86
2019-02-27T18:30:18.839Z,100761.32
2019-02-27T18:33:03.547Z,100750.83
2019-02-27T18:36:05.662Z,100750.89
2019-02-27T18:38:32.932Z,100754.94
2019-02-27T18:41:01.048Z,100753.94
2019-02-27T18:43:30.105Z,100751.06
2019-02-27T18:45:58.729Z,100741.03
2019-02-27T18:48:26.658Z,100737.05
2019-02-27T18:50:55.918Z,100738.36
2019-02-27T18:53:24.309Z,100737.98
2019-02-27T18:55:52.238Z,100727.16
2019-02-27T18:58:20.893Z,100725.55
2019-02-27T19:00:49.419Z,100720.89
2019-02-27T19:03:17.258Z,100716.36
2019-02-27T19:05:45.134Z,100712.73
2019-02-27T19:08:13.061Z,100704.08
2019-02-27T19:10:42.477Z,100702.91
2019-02-27T19:13:10.775Z,100699.83
2019-02-27T19:15:39.080Z,100691.47
2019-02-27T19:18:07.389Z,100694.84
2019-02-27T19:20:35.600Z,100689.36
2019-02-27T19:23:03.649Z,100688.05
2019-02-27T19:25:34.620Z,100687.33
2019-02-27T19:28:04.734Z,100688.98
2019-02-27T19:30:34.677Z,100678.33
2019-02-27T19:33:03.911Z,100678.67
2019-02-27T19:35:32.840Z,100678.67
2019-02-27T19:38:01.142Z,100678.06
2019-02-27T19:40:30.563Z,100681.36
2019-02-27T19:43:02.988Z,100677.80
2019-02-27T19:45:30.895Z,100669.86
2019-02-27T19:48:00.005Z,100665.41
2019-02-27T19:50:28.019Z,100658.50
2019-02-27T19:52:56.014Z,100650.44
2019-02-27T19:55:27.626Z,100653.45
2019-02-27T19:57:55.689Z,100646.50
2019-02-27T20:00:25.063Z,100649.88
2019-02-27T20:02:56.996Z,100653.84
2019-02-27T20:05:24.043Z,100654.06
2019-02-27T20:07:52.241Z,100654.30
2019-02-27T20:10:21.785Z,100662.67
2019-02-27T20:12:52.979Z,100662.05
2019-02-27T20:15:19.930Z,100666.57
2019-02-27T20:17:48.053Z,100668.78
2019-02-27T20:20:17.522Z,100672.77
2019-02-27T20:22:46.582Z,100674.37
2019-02-27T20:25:14.549Z,100682.11
2019-02-27T20:27:43.075Z,100680.31
2019-02-27T20:30:14.350Z,100660.25
2019-02-27T20:32:43.109Z,100666.78
2019-02-27T20:35:11.428Z,100671.29
2019-02-27T20:37:40.263Z,100669.55
2019-02-27T20:40:09.372Z,100677.13
2019-02-27T20:42:37.358Z,100663.02
2019-02-27T20:45:08.635Z,100659.03
2019-02-27T20:47:37.274Z,100650.81
2019-02-27T20:50:09.624Z,100650.11
2019-02-27T20:52:42.604Z,100643.51
2019-02-27T20:55:10.904Z,100638.27
2019-02-27T20:57:42.265Z,100634.67
2019-02-27T21:00:12.718Z,100629.58
2019-02-27T21:02:40.669Z,100626.20
2019-02-27T21:05:10.563Z,100613.67
2019-02-27T21:07:38.493Z,100618.27
2019-02-27T21:10:10.357Z,100612.06
2019-02-27T21:12:40.829Z,100602.97
2019-02-27T21:15:08.738Z,100596.95
2019-02-27T21:17:38.928Z,100590.56
2019-02-27T21:20:11.917Z,100590.72
2019-02-27T21:22:40.116Z,100591.84
2019-02-27T21:25:08.639Z,100590.14
2019-02-27T21:27:36.394Z,100593.69
2019-02-27T21:30:18.055Z,100586.72
2019-02-27T21:32:41.203Z,100579.45
2019-02-27T21:35:11.849Z,100566.01
2019-02-27T21:37:44.545Z,100554.69
2019-02-27T21:40:10.758Z,100545.41
2019-02-27T21:42:38.369Z,100547.23
2019-02-27T21:45:08.268Z,100547.33
2019-02-27T21:47:38.340Z,100539.52
2019-02-27T21:50:07.397Z,100544.67
2019-02-27T21:52:35.098Z,100542.05
2019-02-27T21:55:02.669Z,100543.46
2019-02-27T21:57:30.184Z,100535.47
2019-02-27T22:00:25.615Z,100533.78
2019-02-27T22:03:03.901Z,100533.20
2019-02-27T22:10:28.197Z,100527.70
2019-02-27T22:12:53.065Z,100532.36
2019-02-27T22:15:23.215Z,100532.11
2019-02-27T22:17:50.738Z,100534.02
2019-02-27T22:20:18.349Z,100529.15
2019-02-27T22:22:45.728Z,100523.17
2019-02-27T22:25:13.298Z,100528.53
2019-02-27T22:27:43.278Z,100532.84
2019-02-27T22:30:12.519Z,100535.82
2019-02-27T22:32:39.908Z,100540.23
2019-02-27T22:35:07.579Z,100533.09
2019-02-27T22:37:35.009Z,100536.55
2019-02-27T22:40:06.583Z,100537.02
2019-02-27T22:42:31.963Z,100538.45
2019-02-27T22:45:00.585Z,100532.71
2019-02-27T22:47:28.824Z,100523.56
2019-02-27T22:49:56.348Z,100520.09
2019-02-27T22:52:23.848Z,100519.95
2019-02-27T22:54:51.644Z,100521.63
2019-02-27T22:57:19.050Z,100521.05
2019-02-27T22:59:46.604Z,100521.28
2019-02-27T23:02:14.174Z,100524.39
2019-02-27T23:04:41.752Z,100520.20
2019-02-27T23:07:09.483Z,100511.73
2019-02-27T23:09:37.054Z,100519.73
2019-02-27T23:12:04.684Z,100515.53
2019-02-27T23:14:33.134Z,100519.11
2019-02-27T23:17:01.295Z,100507.73
2019-02-27T23:19:28.928Z,100503.59
2019-02-27T23:21:57.575Z,100512.91
2019-02-27T23:24:25.772Z,100511.98
2019-02-27T23:26:54.922Z,100498.09
2019-02-27T23:29:22.778Z,100500.09
2019-02-27T23:31:50.313Z,100503.34
2019-02-27T23:34:17.768Z,100499.52
2019-02-27T23:36:45.281Z,100504.28
2019-02-27T23:39:12.728Z,100499.27
2019-02-27T23:41:40.283Z,100497.72
2019-02-27T23:44:07.712Z,100497.72
2019-02-27T23:46:35.193Z,100493.19
2019-02-27T23:49:02.608Z,100491.63
2019-02-27T23:51:30.143Z,100487.55
2019-02-27T23:53:58.636Z,100490.06
2019-02-27T23:56:26.943Z,100486.81
2019-02-27T23:58:54.481Z,100485.01
